Time;durP1;ratioP1;P1;durP2;ratioP2;P2;SDS_P1;SDS_P2;PMS_P1;PMS_P2;Temp;Humidity;BMP_temperature;BMP_pressure;BME280_temperature;BME280_humidity;BME280_pressure;Samples;Min_cycle;Max_cycle;Signal;HPM_P1;HPM_P2
2021/11/24 00:09:26;;;;;;;60.80;31.48;;;;;;;4.68;95.03;102203.78;4916086;29;20131;-82
2021/11/24 00:29:57;;;;;;;66.35;32.30;;;;;;;4.81;95.33;102187.47;4956493;28;20169;-81
2021/11/24 00:52:38;;;;;;;66.88;31.13;;;;;;;4.82;95.29;102181.38;4975055;28;20141;-81
2021/11/24 00:59:02;;;;;;;57.75;30.17;;;;;;;4.83;95.15;102188.22;4975967;28;20047;-79
2021/11/24 01:01:52;;;;;;;60.80;30.48;;;;;;;4.82;95.23;102171.00;4978490;28;20425;-79
2021/11/24 01:04:34;;;;;;;55.42;29.25;;;;;;;4.87;95.33;102183.72;4976589;28;20464;-80
2021/11/24 01:07:03;;;;;;;56.05;27.67;;;;;;;4.87;95.17;102179.38;4976895;28;20511;-79
2021/11/24 01:09:38;;;;;;;55.85;28.15;;;;;;;4.86;95.20;102176.84;4978566;28;20064;-79
2021/11/24 01:12:07;;;;;;;52.17;28.90;;;;;;;4.89;95.68;102177.53;4978850;28;20460;-79
2021/11/24 01:14:35;;;;;;;54.97;28.40;;;;;;;4.89;95.16;102171.50;4976463;28;20066;-79
2021/11/24 01:17:05;;;;;;;54.75;27.50;;;;;;;4.87;94.24;102170.75;4976329;28;20105;-80
2021/11/24 01:19:34;;;;;;;54.63;28.05;;;;;;;4.94;95.03;102172.09;4975907;28;20109;-80
2021/11/24 01:22:01;;;;;;;55.50;26.90;;;;;;;4.90;95.05;102168.00;4976179;28;20455;-79
2021/11/24 01:24:28;;;;;;;52.05;26.92;;;;;;;4.90;94.50;102175.78;4976582;28;20070;-78
2021/11/24 01:26:55;;;;;;;55.33;28.45;;;;;;;4.91;94.59;102173.09;4976856;28;20364;-79
2021/11/24 01:29:24;;;;;;;54.95;27.73;;;;;;;4.92;94.76;102171.34;4975710;28;20093;-80
2021/11/24 01:31:56;;;;;;;57.55;28.50;;;;;;;4.94;95.23;102165.16;4976467;28;20186;-78
2021/11/24 01:34:24;;;;;;;54.42;27.55;;;;;;;4.90;95.03;102166.25;4976733;28;20046;-78
2021/11/24 01:36:51;;;;;;;57.22;28.45;;;;;;;4.89;95.25;102169.75;5027211;23;20514;-49
2021/11/24 01:39:18;;;;;;;50.88;27.25;;;;;;;4.92;95.57;102161.81;4995964;28;20073;-47
2021/11/24 01:41:45;;;;;;;58.75;27.17;;;;;;;4.96;95.17;102158.13;4990557;28;20097;-48
2021/11/24 01:44:19;;;;;;;51.22;27.38;;;;;;;5.03;95.01;102158.63;4991106;28;20101;-53
2021/11/24 01:46:53;;;;;;;52.95;26.42;;;;;;;5.02;94.55;102161.31;4991619;28;20046;-54
2021/11/24 01:49:21;;;;;;;50.78;27.90;;;;;;;4.93;95.44;102153.09;4991365;28;20058;-53
2021/11/24 01:51:48;;;;;;;46.80;26.10;;;;;;;4.90;95.14;102152.44;4991512;28;20477;-48
2021/11/24 01:54:15;;;;;;;52.17;26.70;;;;;;;4.83;95.00;102145.88;4991123;28;20100;-47
2021/11/24 01:56:42;;;;;;;46.92;26.73;;;;;;;4.83;94.81;102157.09;4991047;28;20046;-50
2021/11/24 01:59:09;;;;;;;45.03;25.92;;;;;;;4.87;95.22;102153.44;4991006;28;20093;-48
2021/11/24 02:01:37;;;;;;;49.15;25.95;;;;;;;4.94;95.23;102149.59;4991185;28;20058;-50
2021/11/24 02:04:05;;;;;;;47.03;26.30;;;;;;;4.89;95.30;102137.78;4991315;28;20418;-50
2021/11/24 02:06:34;;;;;;;49.00;26.20;;;;;;;4.85;94.69;102146.66;4990699;28;20054;-48
2021/11/24 02:09:00;;;;;;;51.03;25.98;;;;;;;4.81;94.40;102143.38;4990876;28;20112;-48
2021/11/24 02:11:28;;;;;;;51.03;27.02;;;;;;;4.75;95.16;102133.34;4991101;28;20377;-47
2021/11/24 02:13:54;;;;;;;49.92;27.17;;;;;;;4.76;94.75;102139.34;4991143;28;20089;-52
2021/11/24 02:16:21;;;;;;;50.80;27.33;;;;;;;4.75;95.32;102129.91;4990648;28;20085;-51
2021/11/24 02:18:48;;;;;;;52.75;26.80;;;;;;;4.77;94.45;102128.06;4990991;28;20054;-49
2021/11/24 02:21:17;;;;;;;50.90;26.52;;;;;;;4.73;94.91;102124.78;4991015;28;20062;-49
2021/11/24 02:23:44;;;;;;;47.90;25.63;;;;;;;4.76;94.94;102116.00;4990967;28;20088;-50
2021/11/24 02:26:12;;;;;;;50.08;25.15;;;;;;;4.71;94.95;102118.03;4990999;28;20089;-47
2021/11/24 02:28:39;;;;;;;45.42;27.02;;;;;;;4.74;94.91;102110.91;4990924;28;20137;-52
2021/11/24 02:31:07;;;;;;;53.55;28.42;;;;;;;4.78;95.03;102112.41;4990953;28;20050;-54
2021/11/24 02:33:33;;;;;;;52.50;27.42;;;;;;;4.77;95.69;102102.97;4990943;28;20100;-49
2021/11/24 02:36:00;;;;;;;48.42;27.65;;;;;;;4.91;94.55;102097.88;4990839;28;20136;-49
2021/11/24 02:38:28;;;;;;;55.88;27.58;;;;;;;4.89;95.10;102107.50;4990938;28;20070;-47
2021/11/24 02:40:55;;;;;;;48.20;25.45;;;;;;;4.85;94.63;102103.41;4991308;28;20054;-52
2021/11/24 02:43:22;;;;;;;48.80;26.27;;;;;;;4.87;95.02;102101.56;4990790;28;20050;-47
2021/11/24 02:45:48;;;;;;;50.60;26.90;;;;;;;4.88;95.50;102095.44;4990779;28;20129;-52
2021/11/24 02:48:21;;;;;;;49.10;27.05;;;;;;;4.88;95.03;102095.44;4990511;28;20120;-47
2021/11/24 02:50:48;;;;;;;;;;;;;;;4.83;95.20;102100.03;4991555;28;20463;-51
2021/11/24 02:53:15;;;;;;;47.53;26.25;;;;;;;4.86;94.95;102094.69;4991977;28;20023;-52
2021/11/24 02:55:43;;;;;;;46.95;26.90;;;;;;;4.76;95.33;102093.50;4997806;28;20133;-49
2021/11/24 02:58:10;;;;;;;50.22;26.60;;;;;;;4.69;95.44;102087.00;4993237;28;20061;-49
2021/11/24 03:00:37;;;;;;;47.47;26.63;;;;;;;4.75;95.23;102080.63;4992989;28;20081;-49
2021/11/24 03:03:04;;;;;;;45.15;27.30;;;;;;;4.78;94.88;102075.28;4993176;28;20381;-51
2021/11/24 03:05:31;;;;;;;49.95;27.92;;;;;;;4.69;95.04;102081.81;5003225;28;20535;-48
2021/11/24 03:07:59;;;;;;;44.25;26.38;;;;;;;4.75;95.05;102081.47;5013009;28;20089;-49
2021/11/24 03:10:26;;;;;;;51.70;27.15;;;;;;;4.78;95.50;102070.94;5012874;28;20465;-54
2021/11/24 03:12:54;;;;;;;48.03;26.63;;;;;;;4.79;95.55;102069.16;5013049;28;20093;-54
2021/11/24 03:15:20;;;;;;;48.45;27.15;;;;;;;4.78;95.39;102065.75;5012123;28;20172;-53
2021/11/24 03:17:47;;;;;;;46.75;27.08;;;;;;;4.76;94.93;102059.81;5013604;28;20053;-50
2021/11/24 03:20:14;;;;;;;52.17;27.33;;;;;;;4.75;94.96;102050.34;5013436;28;20054;-49
2021/11/24 03:22:41;;;;;;;50.60;28.17;;;;;;;4.76;95.29;102054.63;5013486;28;20081;-52
2021/11/24 03:25:09;;;;;;;50.92;27.98;;;;;;;4.76;94.76;102052.03;5013286;28;20082;-49
2021/11/24 03:27:39;;;;;;;52.83;28.08;;;;;;;4.65;95.28;102051.78;5013064;28;20093;-48
2021/11/24 03:30:09;;;;;;;51.03;29.48;;;;;;;4.63;95.23;102045.84;5013288;28;20415;-50
2021/11/24 03:32:36;;;;;;;51.08;28.05;;;;;;;4.70;95.57;102042.00;5013434;28;20104;-47
2021/11/24 03:35:03;;;;;;;50.47;28.48;;;;;;;4.76;95.75;102046.84;5013521;28;20459;-47
2021/11/24 03:37:30;;;;;;;49.00;27.73;;;;;;;4.71;95.10;102038.50;5013449;28;20112;-49
2021/11/24 03:39:57;;;;;;;49.17;27.98;;;;;;;4.72;94.99;102032.41;5012965;28;20088;-48
2021/11/24 03:42:24;;;;;;;49.47;27.75;;;;;;;4.64;95.30;102034.56;5012758;28;20145;-47
2021/11/24 03:44:51;;;;;;;50.60;26.40;;;;;;;4.64;95.68;102029.38;5013720;28;20073;-53
2021/11/24 03:47:19;;;;;;;50.10;27.10;;;;;;;4.63;96.17;102030.31;5015269;28;20373;-48
2021/11/24 03:49:46;;;;;;;47.50;27.30;;;;;;;4.65;95.30;102024.13;5014261;28;20085;-49
2021/11/24 03:52:13;;;;;;;52.67;28.58;;;;;;;4.69;95.55;102024.78;5013119;28;20085;-48
2021/11/24 03:54:39;;;;;;;49.33;27.88;;;;;;;4.74;95.45;102017.56;5012739;28;20088;-47
2021/11/24 03:57:08;;;;;;;50.60;28.55;;;;;;;4.78;95.13;102011.28;5012998;28;20284;-47
2021/11/24 03:59:35;;;;;;;50.95;26.75;;;;;;;4.87;94.98;102012.53;5012634;28;20053;-49
2021/11/24 04:02:02;;;;;;;50.88;27.17;;;;;;;4.83;95.28;102008.44;5012965;28;20049;-50
2021/11/24 04:04:30;;;;;;;49.25;27.20;;;;;;;4.86;95.28;102011.69;5012089;28;20046;-50
2021/11/24 04:06:56;;;;;;;49.38;27.38;;;;;;;4.93;94.42;102001.81;5012656;28;20132;-49
2021/11/24 04:09:23;;;;;;;50.08;25.40;;;;;;;4.89;95.00;102000.31;5012116;28;20089;-51
2021/11/24 04:11:50;;;;;;;48.45;26.80;;;;;;;4.85;94.34;102001.41;5012464;28;20481;-50
2021/11/24 04:14:17;;;;;;;50.05;27.02;;;;;;;4.80;95.05;102000.81;5012768;28;20068;-52
2021/11/24 04:16:44;;;;;;;47.97;27.30;;;;;;;4.88;94.83;101999.47;5012491;28;20061;-47
2021/11/24 04:19:10;;;;;;;53.25;27.77;;;;;;;4.86;94.67;101997.91;5012354;28;20078;-49
2021/11/24 04:21:38;;;;;;;53.70;27.42;;;;;;;4.86;94.23;101990.13;5012377;28;20101;-49
2021/11/24 04:24:06;;;;;;;54.88;27.05;;;;;;;4.95;94.80;101985.25;5012190;28;20085;-52
2021/11/24 04:26:33;;;;;;;51.38;26.77;;;;;;;4.86;94.23;101979.75;5012093;28;20091;-52
2021/11/24 04:29:00;;;;;;;50.28;27.40;;;;;;;4.89;94.89;101975.22;5012332;28;20131;-48
2021/11/24 04:31:27;;;;;;;49.53;26.55;;;;;;;4.85;94.76;101981.50;5012113;28;20153;-49
2021/11/24 04:33:53;;;;;;;51.42;27.83;;;;;;;4.83;94.61;101972.97;5012089;28;20100;-48
2021/11/24 04:36:20;;;;;;;52.15;28.20;;;;;;;4.77;94.56;101977.66;5011948;28;20405;-51
2021/11/24 04:38:49;;;;;;;57.78;29.70;;;;;;;4.83;94.81;101972.97;5012131;28;20476;-48
2021/11/24 04:41:16;;;;;;;55.80;28.52;;;;;;;4.79;94.73;101957.66;5012173;28;20054;-57
2021/11/24 04:43:45;;;;;;;56.38;29.23;;;;;;;4.82;94.41;101960.91;5011845;28;20081;-49
2021/11/24 04:46:14;;;;;;;53.08;28.27;;;;;;;4.84;94.17;101960.84;5011755;28;20161;-53
2021/11/24 04:48:41;;;;;;;56.55;30.02;;;;;;;4.85;94.63;101952.13;5012258;28;20053;-47
2021/11/24 04:51:09;;;;;;;58.85;28.15;;;;;;;4.81;94.94;101953.22;5011835;28;20054;-54
2021/11/24 04:53:36;;;;;;;54.70;28.95;;;;;;;4.86;94.79;101959.00;5012059;28;20088;-51
2021/11/24 04:56:05;;;;;;;52.63;29.70;;;;;;;4.92;93.74;101954.28;5011818;28;20065;-50
2021/11/24 04:58:32;;;;;;;55.28;29.50;;;;;;;4.82;94.09;101954.91;5011272;28;20100;-51
2021/11/24 05:01:01;;;;;;;55.55;30.48;;;;;;;4.88;94.38;101959.75;5012152;28;20046;-53
2021/11/24 05:04:06;;;;;;;55.45;28.85;;;;;;;4.83;94.04;101962.59;5011368;28;20578;-51
2021/11/24 05:06:34;;;;;;;55.15;28.88;;;;;;;4.83;94.30;101957.41;5011546;28;20123;-54
2021/11/24 05:09:00;;;;;;;55.47;29.63;;;;;;;4.78;94.76;101967.19;5011480;28;20130;-52
2021/11/24 05:11:29;;;;;;;60.47;29.48;;;;;;;4.75;94.67;101962.19;5011238;28;20050;-48
2021/11/24 05:13:59;;;;;;;57.67;28.33;;;;;;;4.73;94.32;101963.19;5011520;28;20108;-49
2021/11/24 05:16:30;;;;;;;53.20;28.40;;;;;;;4.72;94.01;101966.75;5010675;28;20056;-47
2021/11/24 05:18:57;;;;;;;53.75;29.17;;;;;;;4.70;94.14;101958.22;5011867;28;20073;-53
2021/11/24 05:21:28;;;;;;;48.65;27.95;;;;;;;4.76;94.16;101953.47;5011780;28;20046;-50
2021/11/24 05:23:57;;;;;;;53.05;29.45;;;;;;;4.78;94.52;101956.00;5011622;28;20053;-48
2021/11/24 05:26:26;;;;;;;59.63;30.55;;;;;;;4.82;94.31;101942.75;5011597;28;20385;-53
2021/11/24 05:29:00;;;;;;;51.13;28.48;;;;;;;4.86;93.95;101954.63;5011527;28;20120;-48
2021/11/24 05:31:31;;;;;;;54.10;29.27;;;;;;;4.82;93.29;101952.31;5011794;28;20143;-50
2021/11/24 05:34:00;;;;;;;54.33;27.75;;;;;;;4.82;93.21;101953.13;5001155;28;20042;-53
2021/11/24 05:36:29;;;;;;;57.75;29.85;;;;;;;4.78;93.25;101956.00;4990589;28;20485;-51
2021/11/24 05:38:58;;;;;;;47.72;27.85;;;;;;;4.81;94.43;101946.28;4990956;28;20054;-49
2021/11/24 05:41:24;;;;;;;53.58;28.95;;;;;;;4.86;93.68;101956.41;4990512;28;20065;-51
2021/11/24 05:44:04;;;;;;;51.65;28.73;;;;;;;4.90;94.10;101945.75;4991121;28;20050;-47
2021/11/24 05:46:42;;;;;;;52.95;29.20;;;;;;;4.92;94.45;101949.09;4990733;28;20047;-52
2021/11/24 05:49:10;;;;;;;56.53;28.45;;;;;;;5.00;93.70;101949.50;4990625;28;20054;-52
2021/11/24 05:51:38;;;;;;;57.15;30.08;;;;;;;5.00;94.12;101946.91;4990210;28;20057;-52
2021/11/24 05:54:05;;;;;;;52.55;28.63;;;;;;;4.96;93.86;101949.78;4998791;28;20065;-48
2021/11/24 05:56:36;;;;;;;59.03;29.70;;;;;;;4.94;94.07;101946.44;5010088;28;20056;-49
2021/11/24 05:59:03;;;;;;;53.03;31.67;;;;;;;4.88;93.87;101936.41;5010326;28;20062;-51
2021/11/24 06:01:39;;;;;;;60.47;31.15;;;;;;;4.89;94.00;101933.72;5009874;28;20062;-47
2021/11/24 06:04:07;;;;;;;59.45;30.52;;;;;;;4.87;93.71;101932.97;5001745;28;20085;-49
2021/11/24 06:06:35;;;;;;;58.42;30.35;;;;;;;5.02;93.71;101944.22;5004726;28;20199;-51
2021/11/24 06:09:03;;;;;;;60.33;29.17;;;;;;;4.94;93.51;101936.06;5009776;28;20060;-53
2021/11/24 06:11:30;;;;;;;57.53;30.55;;;;;;;4.90;93.87;101930.19;5009362;28;20061;-53
2021/11/24 06:13:58;;;;;;;57.25;29.55;;;;;;;4.89;94.20;101933.72;5009573;28;20065;-49
2021/11/24 06:16:29;;;;;;;59.20;29.50;;;;;;;4.89;93.60;101932.88;5009608;28;20471;-48
2021/11/24 06:18:58;;;;;;;59.22;29.65;;;;;;;4.79;94.42;101927.38;5009820;28;20139;-48
2021/11/24 06:21:26;;;;;;;51.85;27.80;;;;;;;4.94;93.39;101925.69;5009488;28;20132;-47
2021/11/24 06:23:52;;;;;;;59.35;29.65;;;;;;;4.87;93.28;101921.75;5009679;28;20064;-48
2021/11/24 06:26:22;;;;;;;61.10;29.38;;;;;;;4.84;93.11;101930.56;5009796;28;20081;-49
2021/11/24 06:28:50;;;;;;;62.75;29.85;;;;;;;4.77;93.92;101921.44;5011798;28;20054;-49
2021/11/24 06:31:17;;;;;;;60.58;30.20;;;;;;;4.79;93.47;101922.19;5013629;28;20054;-47
2021/11/24 06:33:44;;;;;;;59.15;31.08;;;;;;;4.78;93.66;101915.34;5009168;28;20050;-49
2021/11/24 06:36:12;;;;;;;60.45;31.08;;;;;;;4.82;94.18;101909.06;4993830;28;20101;-47
2021/11/24 06:38:39;;;;;;;54.47;29.70;;;;;;;4.89;93.73;101912.13;4993748;28;20073;-49
2021/11/24 06:41:06;;;;;;;58.45;30.48;;;;;;;4.78;93.98;101914.50;4993617;28;20524;-47
2021/11/24 06:43:32;;;;;;;57.42;30.95;;;;;;;4.82;93.84;101905.63;4996084;28;20504;-49
2021/11/24 06:46:00;;;;;;;63.05;31.17;;;;;;;4.92;94.00;101910.19;5011421;28;20050;-50
2021/11/24 06:48:27;;;;;;;60.13;31.50;;;;;;;4.82;93.84;101901.28;4993806;28;20089;-51
2021/11/24 06:50:54;;;;;;;64.75;32.83;;;;;;;4.76;93.98;101911.16;4994528;28;20050;-51
2021/11/24 06:53:22;;;;;;;59.10;30.00;;;;;;;4.82;94.36;101909.06;4994562;28;20050;-47
2021/11/24 06:55:49;;;;;;;60.75;31.00;;;;;;;4.93;93.66;101904.09;4994368;28;20092;-49
2021/11/24 06:58:16;;;;;;;61.80;32.38;;;;;;;4.96;93.67;101911.69;4994137;28;20050;-52
2021/11/24 07:00:43;;;;;;;58.15;30.52;;;;;;;4.90;93.81;101904.25;4994369;28;20141;-50
2021/11/24 07:03:10;;;;;;;61.85;31.50;;;;;;;4.90;93.51;101913.81;4994484;28;20054;-49
2021/11/24 07:05:37;;;;;;;62.05;30.90;;;;;;;4.95;93.58;101912.63;4994179;28;20050;-47
2021/11/24 07:08:04;;;;;;;58.88;31.45;;;;;;;4.93;93.88;101909.28;4994557;28;20052;-47
2021/11/24 07:10:32;;;;;;;59.60;32.38;;;;;;;4.91;93.63;101911.13;4993954;28;20093;-50
2021/11/24 07:12:59;;;;;;;56.47;30.75;;;;;;;5.07;93.42;101907.66;4994402;28;20054;-48
2021/11/24 07:15:27;;;;;;;61.35;31.90;;;;;;;4.91;93.02;101905.94;4994424;28;20578;-48
2021/11/24 07:17:54;;;;;;;60.25;30.95;;;;;;;4.96;93.63;101913.47;4994219;28;20061;-47
2021/11/24 07:20:21;;;;;;;63.38;31.63;;;;;;;4.95;93.50;101910.03;4994260;28;20088;-47
2021/11/24 07:22:47;;;;;;;59.15;32.10;;;;;;;4.93;93.53;101906.69;4993868;28;20108;-49
2021/11/24 07:25:14;;;;;;;64.85;34.47;;;;;;;5.04;93.76;101910.41;4993658;28;20132;-53
2021/11/24 07:27:42;;;;;;;63.85;31.90;;;;;;;5.02;93.54;101907.09;4994230;28;20144;-49
2021/11/24 07:30:10;;;;;;;63.05;32.03;;;;;;;5.04;93.60;101908.66;4993847;28;20105;-50
2021/11/24 07:32:37;;;;;;;65.90;34.47;;;;;;;5.06;92.84;101913.75;4993648;28;20050;-48
2021/11/24 07:35:04;;;;;;;60.90;32.05;;;;;;;5.04;93.45;101907.81;4993675;28;20050;-48
2021/11/24 07:37:30;;;;;;;60.50;31.85;;;;;;;5.05;93.37;101906.91;5006781;23;20085;-44
2021/11/24 07:39:57;;;;;;;66.57;32.70;;;;;;;5.08;93.42;101896.34;5000806;28;20092;-45
2021/11/24 07:42:25;;;;;;;59.72;32.33;;;;;;;5.10;92.89;101891.91;4993899;28;20089;-48
2021/11/24 07:44:53;;;;;;;62.30;30.98;;;;;;;5.13;92.63;101894.31;4994549;28;20092;-50
2021/11/24 07:47:20;;;;;;;58.28;32.78;;;;;;;5.11;92.51;101898.75;4994201;28;20129;-50
2021/11/24 07:49:46;;;;;;;59.80;32.45;;;;;;;5.15;93.04;101893.31;4994022;28;20134;-51
2021/11/24 07:52:13;;;;;;;54.47;31.42;;;;;;;5.07;92.59;101892.91;4993703;28;20089;-48
2021/11/24 07:54:40;;;;;;;58.92;32.38;;;;;;;5.10;92.48;101884.97;4993650;28;20495;-52
2021/11/24 07:57:07;;;;;;;55.05;31.20;;;;;;;5.05;91.62;101891.34;4993939;28;20042;-53
2021/11/24 07:59:35;;;;;;;57.33;30.90;;;;;;;5.00;92.10;101894.19;4993938;28;20464;-53
2021/11/24 08:02:04;;;;;;;53.90;30.30;;;;;;;5.15;92.08;101879.50;4994083;28;20048;-51
2021/11/24 08:04:31;;;;;;;59.75;30.95;;;;;;;5.19;92.53;101881.00;4993873;28;20078;-49
2021/11/24 08:07:00;;;;;;;59.30;31.77;;;;;;;5.08;91.70;101879.03;4993654;28;20212;-48
2021/11/24 08:09:27;;;;;;;54.35;30.90;;;;;;;5.19;91.75;101878.41;4993707;28;20112;-48
2021/11/24 08:11:53;;;;;;;54.95;30.00;;;;;;;5.31;91.70;101875.03;4994373;28;20109;-50
2021/11/24 08:14:21;;;;;;;59.17;31.80;;;;;;;5.34;91.53;101877.47;4993855;28;20432;-46
2021/11/24 08:16:47;;;;;;;53.45;30.25;;;;;;;5.37;91.34;101881.63;4993844;28;20477;-49
2021/11/24 08:19:16;;;;;;;50.33;29.92;;;;;;;5.31;90.83;101875.88;4993423;28;20105;-52
2021/11/24 08:21:44;;;;;;;53.17;29.58;;;;;;;5.33;91.13;101870.59;4993354;28;20417;-52
2021/11/24 08:24:10;;;;;;;53.70;30.40;;;;;;;5.42;91.85;101864.84;4993073;28;20086;-51
2021/11/24 08:26:37;;;;;;;51.60;29.67;;;;;;;5.19;90.76;101855.03;4993554;28;20046;-46
2021/11/24 08:29:04;;;;;;;54.85;30.27;;;;;;;5.24;91.47;101861.59;4993339;28;20082;-51
2021/11/24 08:31:30;;;;;;;52.72;30.30;;;;;;;5.38;90.86;101862.53;4993551;28;20085;-46
2021/11/24 08:33:57;;;;;;;58.40;31.08;;;;;;;5.48;91.16;101858.47;4993420;28;20050;-50
2021/11/24 08:36:25;;;;;;;62.15;30.95;;;;;;;5.55;90.92;101845.03;4992921;28;20116;-48
2021/11/24 08:38:52;;;;;;;70.47;32.20;;;;;;;5.61;91.74;101852.44;4992793;28;20092;-51
2021/11/24 08:41:18;;;;;;;57.40;31.02;;;;;;;5.68;90.71;101853.69;4992731;28;20090;-51
2021/11/24 08:43:45;;;;;;;54.67;29.35;;;;;;;5.65;90.47;101848.72;4992990;28;20565;-52
2021/11/24 08:46:12;;;;;;;49.55;29.92;;;;;;;5.57;90.51;101853.56;4992786;28;20125;-54
2021/11/24 08:48:39;;;;;;;57.22;29.92;;;;;;;5.61;90.79;101846.41;4992686;28;20132;-53
2021/11/24 08:51:06;;;;;;;55.35;30.08;;;;;;;5.53;90.90;101839.09;4990306;28;20104;-47
2021/11/24 08:53:34;;;;;;;53.67;29.92;;;;;;;5.55;90.30;101833.81;4991885;28;20082;-47
2021/11/24 08:56:01;;;;;;;47.08;28.17;;;;;;;5.58;90.80;101842.25;4991954;28;20074;-55
2021/11/24 08:58:27;;;;;;;50.22;27.88;;;;;;;5.75;90.76;101832.56;4992436;28;20129;-50
2021/11/24 09:00:54;;;;;;;51.60;29.95;;;;;;;5.95;89.79;101834.78;4992706;28;20149;-48
2021/11/24 09:03:21;;;;;;;50.45;28.35;;;;;;;6.08;89.04;101827.88;4992745;28;20050;-48
2021/11/24 09:05:50;;;;;;;51.35;29.17;;;;;;;6.11;88.64;101830.28;4992282;28;20110;-49
2021/11/24 09:08:17;;;;;;;49.83;28.50;;;;;;;6.08;89.65;101827.88;4992490;28;20141;-48
2021/11/24 09:10:45;;;;;;;45.45;26.88;;;;;;;5.94;88.57;101836.53;4992692;28;20058;-53
2021/11/24 09:13:12;;;;;;;49.75;29.13;;;;;;;5.85;89.91;101826.69;4992651;28;20049;-52
2021/11/24 09:15:40;;;;;;;46.15;28.27;;;;;;;5.98;89.17;101832.00;4992229;28;20082;-54
2021/11/24 09:18:07;;;;;;;50.22;28.05;;;;;;;5.90;89.19;101836.81;4992328;28;20066;-52
2021/11/24 09:20:34;;;;;;;49.65;27.55;;;;;;;5.74;89.78;101825.69;4992439;28;20086;-50
2021/11/24 09:23:01;;;;;;;46.30;28.10;;;;;;;5.92;90.46;101821.97;4992495;28;20046;-51
2021/11/24 09:25:36;;;;;;;49.78;28.15;;;;;;;6.02;90.05;101811.84;4992308;28;20189;-49
2021/11/24 09:28:10;;;;;;;49.85;28.42;;;;;;;6.16;89.77;101807.41;4993003;28;20125;-50
2021/11/24 09:30:37;;;;;;;48.65;27.75;;;;;;;5.96;90.00;101803.50;4992853;28;20054;-49
2021/11/24 09:33:05;;;;;;;48.67;29.20;;;;;;;5.89;90.08;101803.97;4992342;28;20112;-48
2021/11/24 09:35:32;;;;;;;46.83;27.63;;;;;;;6.17;89.87;101801.28;4992567;28;20116;-49
2021/11/24 09:38:00;;;;;;;47.17;26.73;;;;;;;6.27;88.97;101806.72;4992267;28;20049;-47
2021/11/24 09:40:27;;;;;;;50.40;27.67;;;;;;;6.18;88.43;101800.34;4992212;28;20141;-47
2021/11/24 09:42:59;;;;;;;48.05;26.40;;;;;;;6.08;89.47;101793.25;4992293;28;20154;-50
2021/11/24 09:45:28;;;;;;;48.83;26.73;;;;;;;6.11;89.12;101796.50;5000642;28;20524;-54
2021/11/24 09:47:58;;;;;;;48.20;26.33;;;;;;;6.33;89.07;101796.75;5011917;28;20129;-51
2021/11/24 09:50:27;;;;;;;44.97;27.20;;;;;;;6.41;88.14;101790.22;5011361;28;20054;-47
2021/11/24 09:52:56;;;;;;;43.85;27.23;;;;;;;6.26;88.23;101798.09;5010259;28;20093;-49
2021/11/24 09:55:23;;;;;;;46.67;25.92;;;;;;;6.26;88.84;101787.69;4992043;28;20137;-49
2021/11/24 09:57:53;;;;;;;47.35;26.70;;;;;;;6.32;88.95;101779.50;4991977;28;20485;-49
2021/11/24 10:00:20;;;;;;;46.03;25.70;;;;;;;6.38;89.03;101782.63;4992391;28;20061;-48
2021/11/24 10:02:49;;;;;;;44.17;26.33;;;;;;;6.23;88.63;101776.66;4993008;28;20537;-47
2021/11/24 10:05:17;;;;;;;42.53;26.15;;;;;;;6.20;88.07;101776.84;4996253;28;20488;-49
2021/11/24 10:07:45;;;;;;;46.88;26.00;;;;;;;6.45;88.34;101766.53;4995728;28;20047;-49
2021/11/24 10:10:12;;;;;;;45.00;26.33;;;;;;;6.50;88.48;101761.03;4995600;28;20054;-49
2021/11/24 10:12:38;;;;;;;46.97;25.98;;;;;;;6.40;87.57;101760.78;4995975;28;20145;-53
2021/11/24 10:15:09;;;;;;;41.67;25.38;;;;;;;6.36;87.94;101750.69;4996238;28;20089;-47
2021/11/24 10:17:37;;;;;;;43.60;25.67;;;;;;;6.24;87.82;101753.16;4995845;28;20042;-53
2021/11/24 10:20:08;;;;;;;45.30;25.40;;;;;;;6.19;87.53;101750.03;4995612;28;20468;-48
2021/11/24 10:22:35;;;;;;;44.53;25.83;;;;;;;6.23;88.64;101745.47;4995633;28;20093;-51
2021/11/24 10:25:06;;;;;;;39.13;24.08;;;;;;;6.26;87.58;101742.66;4995454;28;20088;-51
2021/11/24 10:27:39;;;;;;;39.28;24.40;;;;;;;6.45;87.31;101742.28;4995639;28;20086;-50
2021/11/24 10:30:08;;;;;;;38.05;23.80;;;;;;;6.55;87.05;101735.53;4995769;28;20073;-51
2021/11/24 10:32:36;;;;;;;46.78;23.23;;;;;;;6.78;86.72;101740.00;4995573;28;20086;-53
2021/11/24 10:35:03;;;;;;;47.35;24.25;;;;;;;6.95;85.84;101737.09;4995165;28;20145;-51
2021/11/24 10:37:31;;;;;;;42.63;23.58;;;;;;;6.75;85.61;101719.41;4995163;28;20547;-51
2021/11/24 10:39:59;;;;;;;36.25;21.42;;;;;;;6.77;84.54;101727.09;4995479;28;20058;-55
2021/11/24 10:42:30;;;;;;;34.85;21.60;;;;;;;6.77;84.51;101716.69;4995073;28;20559;-52
2021/11/24 10:45:00;;;;;;;39.25;23.58;;;;;;;6.54;85.24;101707.88;5000300;28;20124;-49
2021/11/24 10:47:28;;;;;;;36.10;20.80;;;;;;;6.71;84.95;101702.34;5014618;28;20053;-47
2021/11/24 10:49:56;;;;;;;33.50;20.85;;;;;;;6.62;84.30;101702.97;5014601;28;20092;-51
2021/11/24 10:52:26;;;;;;;33.13;20.00;;;;;;;6.81;83.42;101703.38;4975416;28;20051;-49
2021/11/24 10:55:07;;;;;;;36.55;21.20;;;;;;;6.82;84.11;101686.84;4975753;28;20110;-48
2021/11/24 10:57:34;;;;;;;31.42;20.33;;;;;;;6.87;83.52;101692.56;4975842;28;20078;-48
2021/11/24 11:00:09;;;;;;;33.92;21.42;;;;;;;6.82;83.63;101679.03;4975247;28;20063;-47
2021/11/24 11:02:37;;;;;;;33.75;20.30;;;;;;;6.75;84.18;101674.34;4975663;28;20422;-49
2021/11/24 11:05:10;;;;;;;37.10;21.00;;;;;;;6.99;83.92;101670.88;4975402;28;20093;-50
2021/11/24 11:07:39;;;;;;;31.05;19.30;;;;;;;6.87;83.04;101670.91;4975810;28;20089;-51
2021/11/24 11:10:16;;;;;;;29.80;18.73;;;;;;;6.83;82.41;101662.47;4975428;28;20093;-47
2021/11/24 11:12:45;;;;;;;27.38;18.08;;;;;;;7.04;82.75;101672.34;4987111;28;20082;-47
2021/11/24 11:15:21;;;;;;;27.95;17.35;;;;;;;6.94;81.30;101665.16;4994663;28;20058;-50
2021/11/24 11:17:55;;;;;;;29.67;18.60;;;;;;;6.89;82.11;101659.47;4994473;28;20074;-53
2021/11/24 11:20:23;;;;;;;28.25;17.77;;;;;;;6.95;81.49;101647.78;4994530;28;20054;-49
2021/11/24 11:22:55;;;;;;;29.60;17.88;;;;;;;7.03;81.45;101649.84;4994258;28;20086;-50
2021/11/24 11:25:23;;;;;;;33.10;17.98;;;;;;;7.33;81.04;101645.88;4994348;28;20085;-51
2021/11/24 11:27:51;;;;;;;29.77;17.77;;;;;;;7.68;80.68;101637.28;4994502;28;20457;-48
2021/11/24 11:30:17;;;;;;;25.98;16.90;;;;;;;7.67;80.22;101625.19;4995034;28;20058;-51
2021/11/24 11:32:46;;;;;;;28.55;17.92;;;;;;;7.25;80.29;101618.75;4994894;28;20050;-50
2021/11/24 11:35:14;;;;;;;28.70;17.52;;;;;;;7.36;80.38;101615.38;4994014;28;20069;-53
2021/11/24 11:37:42;;;;;;;28.48;18.58;;;;;;;7.20;80.39;101610.44;4994435;28;20137;-53
2021/11/24 11:40:11;;;;;;;27.15;18.05;;;;;;;7.14;80.35;101606.50;4994827;28;20487;-50
2021/11/24 11:42:41;;;;;;;28.45;17.48;;;;;;;7.25;80.89;101597.91;4993289;28;20061;-49
2021/11/24 11:45:10;;;;;;;22.52;14.20;;;;;;;7.29;76.70;101592.38;4994106;28;20074;-46
2021/11/24 11:47:49;;;;;;;17.63;11.73;;;;;;;7.28;75.23;101576.88;4993133;28;20130;-49
2021/11/24 11:50:59;;;;;;;17.92;11.63;;;;;;;7.39;74.83;101579.53;4994382;28;20074;-49
2021/11/24 11:53:29;;;;;;;16.85;10.70;;;;;;;7.37;74.52;101581.41;4969080;28;20112;-51
2021/11/24 11:56:15;;;;;;;15.82;9.73;;;;;;;7.43;72.67;101567.94;4993528;28;20133;-49
2021/11/24 11:58:58;;;;;;;16.00;10.50;;;;;;;7.54;73.26;101562.78;4993426;28;20493;-51
2021/11/24 12:01:27;;;;;;;14.57;9.50;;;;;;;7.43;72.49;101556.69;4991240;28;20050;-51
2021/11/24 12:04:07;;;;;;;17.75;10.15;;;;;;;7.37;74.22;101563.19;4988872;28;20060;-46
2021/11/24 12:06:38;;;;;;;17.50;10.18;;;;;;;7.44;73.69;101546.16;4993546;28;20057;-48
2021/11/24 12:09:14;;;;;;;17.42;10.60;;;;;;;7.42;74.70;101548.06;4992306;28;20050;-49
2021/11/24 12:12:05;;;;;;;19.17;10.70;;;;;;;7.62;72.44;101549.16;4994633;28;20089;-47
2021/11/24 12:14:47;;;;;;;15.57;9.80;;;;;;;7.54;72.26;101541.94;4983501;28;20049;-49